Ochre River, Canada
Current Conditions -  °F | °C
As of 8:00 AM on Saturday 20 Dec 2014 (Local Time) from CYDN Reporting Station
Overcast Overcast  
Wind Chill: 13°   Ceiling: 1200
Heat Index: 21°   Visibility: 9mi
Dew Point: 19°   Wind: 7mph
Humidity: 93%   Direction: 140°SE
Pressure: 29.95"   Gusts: NA
Location:  51.05°N, 99.78°W
Report Text: CYDN 201400Z AUTO 14006KT 9SM OVC012 M06/M07 A2995 RMK SLP164
Loading
Personal Weather Stations






























Interactive Weather Map New forecast layout! Learn more

10-Day Weather Forecast

Advertisements
Track Severe Weather on mobile